Terminal Aerodrome Forecast
Issued by NWS

Home | Current Version | Previous Version | Text Only | Print | Product List | Glossary On
Versions: 1 2 3 4 5 6 7 8 9 10 11 12
650
FTUS42 KTBW 192335
TAFLAL
TAF
KLAL 192335Z 2000/2024 VRB06KT P6SM SCT050 SCT250
     FM200300 VRB03KT P6SM SCT250
     FM201400 10004KT P6SM FEW020 SCT200
     FM201800 08008KT P6SM VCTS FEW025CB BKN200
     FM202200 12011KT P6SM VCTS SCT025CB BKN060=

USA.gov is the U.S. government's official web portal to all federal, state and local government web resources and services.